createdAt,value
2023-03-06T00:00:58.752Z,53.21
2023-03-06T00:03:53.769Z,56.61
2023-03-06T00:06:41.729Z,60.41
2023-03-06T00:09:22.746Z,66.82
2023-03-06T00:12:11.732Z,62.93
2023-03-06T00:14:52.723Z,50.32
2023-03-06T00:17:47.728Z,51.93
2023-03-06T00:20:35.738Z,56.04
2023-03-06T00:23:17.871Z,59.28
2023-03-06T00:25:58.721Z,66.62
2023-03-06T00:28:46.743Z,62.24
2023-03-06T00:31:21.386Z,51.28
2023-03-06T00:34:10.934Z,51.95
2023-03-06T00:36:46.343Z,56.50
2023-03-06T00:39:33.770Z,58.39
2023-03-06T00:42:09.332Z,61.39
2023-03-06T00:44:57.936Z,69.63
2023-03-06T00:47:33.782Z,60.30
2023-03-06T00:50:23.732Z,50.23
2023-03-06T00:53:04.925Z,51.91
2023-03-06T00:55:46.070Z,55.44
2023-03-06T00:58:27.749Z,58.07
2023-03-06T01:01:08.898Z,61.00
2023-03-06T01:03:49.723Z,69.51
2023-03-06T01:06:37.730Z,62.49
2023-03-06T01:09:12.253Z,50.43
2023-03-06T01:12:00.908Z,51.23
2023-03-06T01:14:37.084Z,54.01
2023-03-06T01:17:25.924Z,57.44
2023-03-06T01:20:21.747Z,60.67
2023-03-06T01:23:10.909Z,63.69
2023-03-06T01:25:45.954Z,68.36
2023-03-06T01:28:34.712Z,55.70
2023-03-06T01:31:09.836Z,51.82
2023-03-06T01:33:57.710Z,54.30
2023-03-06T01:36:33.050Z,57.05
2023-03-06T01:39:20.912Z,61.55
2023-03-06T01:42:02.844Z,70.42
2023-03-06T01:45:19.729Z,61.37
2023-03-06T01:48:14.709Z,50.63
2023-03-06T01:51:02.727Z,54.18
2023-03-06T01:53:36.854Z,56.46
2023-03-06T01:56:26.926Z,59.82
2023-03-06T01:59:04.032Z,67.23
2023-03-06T02:01:58.950Z,61.68
2023-03-06T02:04:49.708Z,50.61
2023-03-06T02:07:26.882Z,51.99
2023-03-06T02:10:15.708Z,55.80
2023-03-06T02:12:57.734Z,58.46
2023-03-06T02:15:52.722Z,61.57
2023-03-06T02:18:42.697Z,68.56
2023-03-06T02:21:22.897Z,59.81
2023-03-06T02:24:18.705Z,50.50
2023-03-06T02:27:00.906Z,52.77
2023-03-06T02:29:42.706Z,56.54
2023-03-06T02:32:24.078Z,59.37
2023-03-06T02:35:05.910Z,61.42
2023-03-06T02:37:48.078Z,69.66
2023-03-06T02:40:29.722Z,61.13
2023-03-06T02:43:10.838Z,50.72
2023-03-06T02:45:56.932Z,52.45
2023-03-06T02:48:38.028Z,56.35
2023-03-06T02:51:19.691Z,58.84
2023-03-06T02:54:00.830Z,60.68
2023-03-06T02:56:41.705Z,67.85
2023-03-06T02:59:36.909Z,64.48
2023-03-06T03:02:24.894Z,51.82
2023-03-06T03:05:00.040Z,50.86
2023-03-06T03:07:47.689Z,54.43
2023-03-06T03:10:29.674Z,56.02
2023-03-06T03:13:24.694Z,60.72
2023-03-06T03:16:15.787Z,62.44
2023-03-06T03:18:53.827Z,70.61
2023-03-06T03:21:42.896Z,60.44
2023-03-06T03:24:17.838Z,50.34
2023-03-06T03:27:05.696Z,52.06
2023-03-06T03:29:47.995Z,55.88
2023-03-06T03:32:29.765Z,57.37
2023-03-06T03:35:13.848Z,60.08
2023-03-06T03:37:54.719Z,61.53
2023-03-06T03:40:35.818Z,71.16
2023-03-06T03:43:16.668Z,64.15
2023-03-06T03:46:00.028Z,50.87
2023-03-06T03:48:41.682Z,50.71
2023-03-06T03:51:29.702Z,54.91
2023-03-06T03:54:06.239Z,58.41
2023-03-06T03:56:53.879Z,60.34
2023-03-06T03:59:42.687Z,69.30
2023-03-06T04:02:30.896Z,60.75
2023-03-06T04:05:06.057Z,49.93
2023-03-06T04:07:53.692Z,51.99
2023-03-06T04:10:27.988Z,55.73
2023-03-06T04:13:15.671Z,58.45
2023-03-06T04:16:06.921Z,61.71
2023-03-06T04:18:42.292Z,69.93
2023-03-06T04:21:30.880Z,59.40
2023-03-06T04:24:13.712Z,49.63
2023-03-06T04:27:01.695Z,51.42
2023-03-06T04:29:36.242Z,54.91
2023-03-06T04:32:23.776Z,57.42
2023-03-06T04:34:59.794Z,59.95
2023-03-06T04:37:48.856Z,61.26
2023-03-06T04:40:29.478Z,70.17
2023-03-06T04:43:18.712Z,62.21
2023-03-06T04:45:53.142Z,51.43
2023-03-06T04:48:40.745Z,51.48
2023-03-06T04:51:16.135Z,54.78
2023-03-06T04:54:03.686Z,57.63
2023-03-06T04:56:44.704Z,59.17
2023-03-06T04:59:39.660Z,68.31
2023-03-06T05:02:27.927Z,63.76
2023-03-06T05:05:02.800Z,51.50
2023-03-06T05:07:50.658Z,50.89
2023-03-06T05:10:32.676Z,54.25
2023-03-06T05:13:27.652Z,57.26
2023-03-06T05:16:16.910Z,60.31
2023-03-06T05:18:58.866Z,60.87
2023-03-06T05:21:53.694Z,70.77
2023-03-06T05:24:41.669Z,63.63
2023-03-06T05:27:23.672Z,52.21
2023-03-06T05:30:19.685Z,51.47
2023-03-06T05:33:07.675Z,55.78
2023-03-06T05:35:56.047Z,56.10
2023-03-06T05:38:37.684Z,57.91
2023-03-06T05:41:26.899Z,58.11
2023-03-06T05:44:02.169Z,58.82
2023-03-06T05:46:49.671Z,60.91
2023-03-06T05:49:24.089Z,68.09
2023-03-06T05:52:11.681Z,72.02
2023-03-06T05:54:51.073Z,60.75
2023-03-06T05:57:38.689Z,50.35
2023-03-06T06:00:34.669Z,50.42
2023-03-06T06:03:22.674Z,53.20
2023-03-06T06:05:57.799Z,54.90
2023-03-06T06:08:45.673Z,56.06
2023-03-06T06:11:21.384Z,57.53
2023-03-06T06:14:09.690Z,58.81
2023-03-06T06:16:51.669Z,59.20
2023-03-06T06:19:46.670Z,59.66
2023-03-06T06:22:34.672Z,60.59
2023-03-06T06:25:09.793Z,69.05
2023-03-06T06:27:57.706Z,70.40
2023-03-06T06:30:32.905Z,57.80
2023-03-06T06:33:20.692Z,49.87
2023-03-06T06:36:02.682Z,50.93
2023-03-06T06:38:50.653Z,53.13
2023-03-06T06:41:46.616Z,54.60
2023-03-06T06:44:39.692Z,55.46
2023-03-06T06:47:24.566Z,56.23
2023-03-06T06:50:13.662Z,61.79
2023-03-06T06:52:48.886Z,69.89
2023-03-06T06:55:36.664Z,61.58
2023-03-06T06:58:18.642Z,50.03
2023-03-06T07:01:24.674Z,47.84
2023-03-06T07:04:12.679Z,50.16
2023-03-06T07:06:47.794Z,52.37
2023-03-06T07:09:37.656Z,53.85
2023-03-06T07:12:13.798Z,54.21
2023-03-06T07:15:01.668Z,55.33
2023-03-06T07:17:36.814Z,56.73
2023-03-06T07:20:25.667Z,56.54
2023-03-06T07:23:07.667Z,56.85
2023-03-06T07:25:55.678Z,57.53
2023-03-06T07:28:51.223Z,57.66
2023-03-06T07:31:46.637Z,58.42
2023-03-06T07:34:34.760Z,58.66
2023-03-06T07:37:16.864Z,58.96
2023-03-06T07:40:12.688Z,59.44
2023-03-06T07:43:16.916Z,59.51
2023-03-06T07:45:53.800Z,59.68
2023-03-06T07:48:42.659Z,67.43
2023-03-06T07:51:31.680Z,65.45
2023-03-06T07:54:26.662Z,51.25
2023-03-06T07:57:14.649Z,49.86
2023-03-06T07:59:55.705Z,52.45
2023-03-06T08:02:44.697Z,55.13
2023-03-06T08:05:21.865Z,56.78
2023-03-06T08:08:09.701Z,59.52
2023-03-06T08:10:51.709Z,60.03
2023-03-06T08:13:46.694Z,60.43
2023-03-06T08:16:35.727Z,66.53
2023-03-06T08:19:10.894Z,64.57
2023-03-06T08:21:58.670Z,52.56
2023-03-06T08:24:33.864Z,50.15
2023-03-06T08:27:21.694Z,52.84
2023-03-06T08:29:56.768Z,55.00
2023-03-06T08:32:44.684Z,57.12
2023-03-06T08:35:25.805Z,59.48
2023-03-06T08:38:06.665Z,61.01
2023-03-06T08:40:47.771Z,61.21
2023-03-06T08:43:28.694Z,64.70
2023-03-06T08:46:17.724Z,60.88
2023-03-06T08:48:52.448Z,50.98
2023-03-06T08:51:40.695Z,51.87
2023-03-06T08:54:15.243Z,53.94
2023-03-06T08:57:03.691Z,56.07
2023-03-06T08:59:44.779Z,58.38
2023-03-06T09:02:25.797Z,59.95
2023-03-06T09:05:08.090Z,60.54
2023-03-06T09:07:48.759Z,60.70
2023-03-06T09:10:31.679Z,60.97
2023-03-06T09:13:12.882Z,61.13
2023-03-06T09:15:54.674Z,61.13
2023-03-06T09:18:36.880Z,60.84
2023-03-06T09:21:18.632Z,60.19
2023-03-06T09:24:06.725Z,59.75
2023-03-06T09:26:50.515Z,59.71
2023-03-06T09:29:39.719Z,60.29
2023-03-06T09:32:14.248Z,58.67
2023-03-06T09:35:03.639Z,58.04
2023-03-06T09:37:44.663Z,60.01
2023-03-06T09:40:40.781Z,58.27
2023-03-06T09:43:27.638Z,57.48
2023-03-06T09:46:15.824Z,58.02
2023-03-06T09:49:39.653Z,57.02
2023-03-06T09:52:34.652Z,55.60
2023-03-06T09:55:13.542Z,54.95
2023-03-06T09:58:29.633Z,55.29
2023-03-06T10:01:26.761Z,54.53
2023-03-06T10:04:31.674Z,55.67
2023-03-06T10:07:30.750Z,55.01
2023-03-06T10:10:13.669Z,53.71
2023-03-06T10:13:07.768Z,52.98
2023-03-06T10:15:50.685Z,53.27
2023-03-06T10:18:31.650Z,53.88
2023-03-06T10:21:18.660Z,54.03
2023-03-06T10:24:27.645Z,53.56
2023-03-06T10:27:13.715Z,54.22
2023-03-06T10:30:15.636Z,52.34
2023-03-06T10:33:14.624Z,52.39
2023-03-06T10:35:48.886Z,52.30
2023-03-06T10:38:36.626Z,51.54
2023-03-06T10:41:17.840Z,51.33
2023-03-06T10:44:07.636Z,51.33
2023-03-06T10:46:52.904Z,52.03
2023-03-06T10:49:42.631Z,51.63
2023-03-06T10:52:31.974Z,52.02
2023-03-06T10:55:32.657Z,53.96
2023-03-06T10:58:51.634Z,52.35
2023-03-06T11:01:39.740Z,51.46
2023-03-06T11:04:38.211Z,51.83
2023-03-06T11:07:34.648Z,51.72
2023-03-06T11:10:24.757Z,51.39
2023-03-06T11:13:28.658Z,51.64
2023-03-06T11:16:08.881Z,51.97
2023-03-06T11:19:04.704Z,51.47
2023-03-06T11:21:41.940Z,51.09
2023-03-06T11:24:29.627Z,49.69
2023-03-06T11:27:06.773Z,49.05
2023-03-06T11:29:58.630Z,48.76
2023-03-06T11:32:40.851Z,49.01
2023-03-06T11:35:34.681Z,49.12
2023-03-06T11:38:25.749Z,47.18
2023-03-06T11:41:09.951Z,45.52
2023-03-06T11:44:26.089Z,45.95
2023-03-06T11:47:35.926Z,45.64
2023-03-06T11:50:49.612Z,45.34
2023-03-06T11:53:38.000Z,44.13
2023-03-06T11:56:38.012Z,43.80
2023-03-06T11:59:34.813Z,42.80
2023-03-06T12:02:40.616Z,43.77
2023-03-06T12:05:41.834Z,43.51
2023-03-06T12:08:43.844Z,41.95
2023-03-06T12:11:54.794Z,43.37
2023-03-06T12:15:12.627Z,42.47
2023-03-06T12:18:21.668Z,40.83
2023-03-06T12:21:31.649Z,41.82
2023-03-06T12:24:32.625Z,41.53
2023-03-06T12:27:06.969Z,41.12
2023-03-06T12:30:07.620Z,41.13
2023-03-06T12:32:51.692Z,40.08
2023-03-06T12:35:50.987Z,40.91
2023-03-06T12:39:00.696Z,40.17
2023-03-06T12:41:57.606Z,38.74
2023-03-06T12:45:13.638Z,39.78
2023-03-06T12:47:48.645Z,39.98
2023-03-06T12:50:50.624Z,38.18
2023-03-06T12:53:30.173Z,38.46
2023-03-06T12:56:18.620Z,37.99
2023-03-06T12:59:09.647Z,38.72
2023-03-06T13:02:30.678Z,38.04
2023-03-06T13:05:38.647Z,38.72
2023-03-06T13:08:35.637Z,39.39
2023-03-06T13:11:33.812Z,39.45
2023-03-06T13:14:35.836Z,39.45
2023-03-06T13:17:29.822Z,39.30
2023-03-06T13:20:20.631Z,39.85
2023-03-06T13:22:55.802Z,42.20
2023-03-06T13:25:54.831Z,42.66
2023-03-06T13:28:50.734Z,42.22
2023-03-06T13:31:42.670Z,43.99
2023-03-06T13:34:37.820Z,43.48
2023-03-06T13:37:26.667Z,42.61
2023-03-06T13:40:20.736Z,43.54
2023-03-06T13:43:11.807Z,43.65
2023-03-06T13:45:53.907Z,44.10
2023-03-06T13:48:44.838Z,44.55
2023-03-06T13:51:32.751Z,46.12
2023-03-06T13:54:35.623Z,44.85
2023-03-06T13:57:50.760Z,45.77
2023-03-06T14:01:04.647Z,46.40
2023-03-06T14:04:11.752Z,45.33
2023-03-06T14:06:53.645Z,44.12
2023-03-06T14:09:55.618Z,44.83
2023-03-06T14:13:04.623Z,44.31
2023-03-06T14:15:54.711Z,45.27
2023-03-06T14:18:49.613Z,45.29
2023-03-06T14:21:54.718Z,45.05
2023-03-06T14:24:48.619Z,47.11
2023-03-06T14:27:33.604Z,46.91
2023-03-06T14:30:33.606Z,48.63
2023-03-06T14:33:40.600Z,47.42
2023-03-06T14:36:31.687Z,50.12
2023-03-06T14:39:16.626Z,52.80
2023-03-06T14:42:21.620Z,54.10
2023-03-06T14:45:12.638Z,54.52
2023-03-06T14:47:47.750Z,54.97
2023-03-06T14:50:41.145Z,54.70
2023-03-06T14:53:44.885Z,56.10
2023-03-06T14:56:33.622Z,56.28
2023-03-06T14:59:10.726Z,58.23
2023-03-06T15:02:03.791Z,58.74
2023-03-06T15:04:48.730Z,59.84
2023-03-06T15:07:37.624Z,61.16
2023-03-06T15:10:12.732Z,61.65
2023-03-06T15:13:01.623Z,63.65
2023-03-06T15:15:45.631Z,63.05
2023-03-06T15:18:51.642Z,50.69
2023-03-06T15:21:44.696Z,49.57
2023-03-06T15:24:48.709Z,52.38
2023-03-06T15:27:43.711Z,54.79
2023-03-06T15:30:39.637Z,56.45
2023-03-06T15:33:23.990Z,58.92
2023-03-06T15:36:13.593Z,60.13
2023-03-06T15:38:50.769Z,61.13
2023-03-06T15:41:43.607Z,62.23
2023-03-06T15:44:18.761Z,66.24
2023-03-06T15:47:09.664Z,59.82
2023-03-06T15:49:45.751Z,49.00
2023-03-06T15:52:33.584Z,48.91
2023-03-06T15:55:16.618Z,51.15
2023-03-06T15:58:06.578Z,53.01
2023-03-06T16:00:42.759Z,55.69
2023-03-06T16:03:30.600Z,58.85
2023-03-06T16:06:05.741Z,58.52
2023-03-06T16:08:53.614Z,59.23
2023-03-06T16:11:43.715Z,59.38
2023-03-06T16:14:31.594Z,59.52
2023-03-06T16:17:12.873Z,60.68
2023-03-06T16:19:54.598Z,61.14
2023-03-06T16:22:35.717Z,63.26
2023-03-06T16:25:16.573Z,67.52
2023-03-06T16:28:01.906Z,65.35
2023-03-06T16:30:44.642Z,61.10
2023-03-06T16:33:27.728Z,52.12
2023-03-06T16:36:09.757Z,49.24
2023-03-06T16:38:50.838Z,50.07
2023-03-06T16:41:32.628Z,51.54
2023-03-06T16:44:21.723Z,53.83
2023-03-06T16:47:02.747Z,54.93
2023-03-06T16:49:43.734Z,57.31
2023-03-06T16:52:24.618Z,58.91
2023-03-06T16:55:05.704Z,60.96
2023-03-06T16:57:46.590Z,62.05
2023-03-06T17:00:39.592Z,70.70
2023-03-06T17:03:34.571Z,71.81
2023-03-06T17:06:24.595Z,61.42
2023-03-06T17:09:00.322Z,50.82
2023-03-06T17:11:53.622Z,50.03
2023-03-06T17:14:28.831Z,51.70
2023-03-06T17:17:16.578Z,53.10
2023-03-06T17:20:02.599Z,55.22
2023-03-06T17:22:57.576Z,56.10
2023-03-06T17:25:46.239Z,56.22
2023-03-06T17:28:21.831Z,57.89
2023-03-06T17:31:12.732Z,59.03
2023-03-06T17:33:51.687Z,60.23
2023-03-06T17:36:39.574Z,60.59
2023-03-06T17:39:21.575Z,68.15
2023-03-06T17:42:16.564Z,69.62
2023-03-06T17:45:04.588Z,53.11
2023-03-06T17:47:48.965Z,50.29
2023-03-06T17:50:43.629Z,51.47
2023-03-06T17:53:31.594Z,53.24
2023-03-06T17:56:06.846Z,54.94
2023-03-06T17:58:54.572Z,57.49
2023-03-06T18:01:37.856Z,57.61
2023-03-06T18:04:25.578Z,59.39
2023-03-06T18:07:00.730Z,60.67
2023-03-06T18:10:00.312Z,65.15
2023-03-06T18:12:35.734Z,64.47
2023-03-06T18:15:23.587Z,49.82
2023-03-06T18:18:04.731Z,48.07
2023-03-06T18:20:49.572Z,51.00
2023-03-06T18:23:37.866Z,52.78
2023-03-06T18:26:16.854Z,55.34
2023-03-06T18:29:12.854Z,57.03
2023-03-06T18:32:16.386Z,59.17
2023-03-06T18:35:11.560Z,60.88
2023-03-06T18:38:08.990Z,62.11
2023-03-06T18:41:15.794Z,65.32
2023-03-06T18:44:23.523Z,60.68
2023-03-06T18:47:06.945Z,50.08
2023-03-06T18:50:00.674Z,51.97
2023-03-06T18:53:03.580Z,55.27
2023-03-06T18:55:49.197Z,56.93
2023-03-06T18:58:50.655Z,59.24
2023-03-06T19:01:27.079Z,61.20
2023-03-06T19:04:17.813Z,61.66
2023-03-06T19:06:54.835Z,67.95
2023-03-06T19:09:45.028Z,61.73
2023-03-06T19:12:21.311Z,49.00
2023-03-06T19:19:00.976Z,53.13
2023-03-06T19:21:51.845Z,55.67
2023-03-06T19:24:34.609Z,57.24
2023-03-06T19:27:38.194Z,58.72
2023-03-06T19:30:22.599Z,60.22
2023-03-06T19:33:03.701Z,60.93
2023-03-06T19:35:44.692Z,69.00
2023-03-06T19:38:25.702Z,64.41
2023-03-06T19:41:08.566Z,51.13
2023-03-06T19:43:52.289Z,49.59
2023-03-06T19:46:33.564Z,52.68
2023-03-06T19:49:16.162Z,55.50
2023-03-06T19:51:59.855Z,57.96
2023-03-06T19:54:40.908Z,59.44
2023-03-06T19:57:22.664Z,60.47
2023-03-06T20:00:18.573Z,61.95
2023-03-06T20:03:06.567Z,68.80
2023-03-06T20:05:41.884Z,53.80
2023-03-06T20:08:31.602Z,51.00
2023-03-06T20:11:13.564Z,54.41
2023-03-06T20:14:04.961Z,56.85
2023-03-06T20:16:50.109Z,60.80
2023-03-06T20:19:44.921Z,66.66
2023-03-06T20:22:39.696Z,62.24
2023-03-06T20:25:28.677Z,51.67
2023-03-06T20:28:11.564Z,52.44
2023-03-06T20:31:06.726Z,55.48
2023-03-06T20:33:56.587Z,58.04
2023-03-06T20:36:46.545Z,61.20
2023-03-06T20:40:18.255Z,68.35
2023-03-06T20:43:09.697Z,58.10
2023-03-06T20:46:11.519Z,51.40
2023-03-06T20:48:56.700Z,55.49
2023-03-06T20:51:40.537Z,58.77
2023-03-06T20:54:29.548Z,60.79
2023-03-06T20:57:10.770Z,69.55
2023-03-06T21:00:07.603Z,64.17
2023-03-06T21:02:55.659Z,53.26
2023-03-06T21:05:30.906Z,53.57
2023-03-06T21:08:18.617Z,57.14
2023-03-06T21:10:53.687Z,60.34
2023-03-06T21:13:41.601Z,67.69
2023-03-06T21:16:19.766Z,61.58
2023-03-06T21:19:32.549Z,51.86
2023-03-06T21:22:14.738Z,54.31
2023-03-06T21:24:55.556Z,58.03
2023-03-06T21:27:44.565Z,61.47
2023-03-06T21:30:19.120Z,67.40
2023-03-06T21:33:07.564Z,62.87
2023-03-06T21:35:50.733Z,55.62
2023-03-06T21:38:31.677Z,52.31
2023-03-06T21:41:21.548Z,53.82
2023-03-06T21:44:12.744Z,58.12
2023-03-06T21:46:47.958Z,60.10
2023-03-06T21:49:36.534Z,60.46
2023-03-06T21:52:11.129Z,67.52
2023-03-06T21:55:02.524Z,69.89
2023-03-06T21:57:36.976Z,60.04
2023-03-06T22:00:26.552Z,53.42
2023-03-06T22:03:03.581Z,53.12
2023-03-06T22:05:51.622Z,56.54
2023-03-06T22:08:25.960Z,66.37
2023-03-06T22:11:14.554Z,61.63
2023-03-06T22:13:49.711Z,52.40
2023-03-06T22:16:37.548Z,54.63
2023-03-06T22:19:12.272Z,58.34
2023-03-06T22:22:00.583Z,60.80
2023-03-06T22:24:36.175Z,68.68
2023-03-06T22:27:24.744Z,67.36
2023-03-06T22:30:06.518Z,55.57
2023-03-06T22:32:48.804Z,51.16
2023-03-06T22:35:32.151Z,53.23
2023-03-06T22:38:13.682Z,57.94
2023-03-06T22:40:54.719Z,59.19
2023-03-06T22:43:43.746Z,63.34
2023-03-06T22:46:19.277Z,70.96
2023-03-06T22:49:10.512Z,62.10
2023-03-06T22:51:45.054Z,53.34
2023-03-06T22:54:32.512Z,52.15
2023-03-06T22:57:06.914Z,57.35
2023-03-06T22:59:54.525Z,61.13
2023-03-06T23:02:50.527Z,68.18
2023-03-06T23:05:38.528Z,65.71
2023-03-06T23:08:13.670Z,60.37
2023-03-06T23:11:01.540Z,54.19
2023-03-06T23:13:37.263Z,54.34
2023-03-06T23:16:25.535Z,57.01
2023-03-06T23:19:06.674Z,60.59
2023-03-06T23:21:47.524Z,66.04
2023-03-06T23:24:28.916Z,69.30
2023-03-06T23:27:10.517Z,60.53
2023-03-06T23:30:01.532Z,53.86
2023-03-06T23:32:35.957Z,56.94
2023-03-06T23:35:23.531Z,59.24
2023-03-06T23:38:04.543Z,64.32
2023-03-06T23:40:52.508Z,67.01
2023-03-06T23:43:28.437Z,63.71
2023-03-06T23:46:17.503Z,57.08
2023-03-06T23:48:52.555Z,53.13
2023-03-06T23:51:40.514Z,54.91
2023-03-06T23:54:21.504Z,59.56
2023-03-06T23:57:02.669Z,61.06
2023-03-06T23:59:43.517Z,68.78
